KARR/ARR METAR and TAF weather

Enter ICAO airport designator
Station Type Date Time Source
KARR METAR 2019/08/22 01:52 UTC NOAA

KARR 220152Z AUTO 00000KT 10SM CLR 22/21 A2998 RMK AO2 SLP147 T02170206 TSNO


Station Type Date Time Source
KARR Decoded METAR 2019/08/22 01:52 UTC NOAA

Station name not available
Aug 21, 2019 - 09:52 PM EDT / 2019.08.22 0152 UTC
Wind: Calm:0
Visibility: 10 mile(s):0
Sky conditions: clear
Temperature: 71.1 F (21.7 C)
Dew Point: 69.1 F (20.6 C)
Relative Humidity: 93%
Pressure (altimeter): 29.98 in. Hg (1015 hPa)
ob: KARR 220152Z AUTO 00000KT 10SM CLR 22/21 A2998 RMK AO2 SLP147 T02170206 TSNO
cycle: 2

Station Type Date Time Source
KARR TAF UTC NOAA

Error!

Example: see airport list